Latest Weather Observations for Adelaide Airport

IDS60801

Issued at 9:35 pm CST Monday 22 September 2014 (issued every 30 minutes, with the page automatically refreshed every 10 minutes)

About weather observations | Map of weather stations | Latest weather observations for SA | Other Formats
Station Details ID: 023034 Name: ADELAIDE AIRPORT Lat: -34.95 Lon: 138.52 Height: 2.0 m
Data from the previous 72 hours. | See also: Recent months at Adelaide Airport
Date/Time
CST
Temp
°C
App
Temp
°C
Dew
Point
Rel
Hum
%
Delta-T
°C
Wind Press
QNH
hPa
Press
MSL
hPa
Rain
since 9 am
mm
Dir
 
Spd
km/h
Gust
km/h
Spd
kts
Gust
kts
22/09:30pm 18.5 12.7 -4.5 20 9.1 E 17 19 9 10 1021.3 - 0.0
22/09:00pm 16.6 11.0 -2.8 26 7.8 ENE 17 20 9 11 1021.2 1021.2 0.0
22/08:30pm 16.9 11.8 -2.2 27 7.8 E 15 19 8 10 1021.2 - 0.0
22/08:00pm 17.8 12.7 -1.6 26 8.1 E 15 17 8 9 1021.0 - 0.0
22/07:30pm 18.2 14.6 0.7 31 7.7 ESE 9 9 5 5 1021.1 - 0.0
22/07:00pm 18.2 15.3 2.7 35 7.1 SSE 7 9 4 5 1021.0 - 0.0
22/06:30pm 19.6 17.0 4.3 36 7.3 SSE 7 9 4 5 1020.7 - 0.0
22/06:00pm 21.4 17.4 -1.9 21 10.0 S 9 13 5 7 1020.5 1020.5 0.0
22/05:30pm 22.2 18.6 0.6 24 9.8 S 9 13 5 7 1020.5 - 0.0
22/05:00pm 23.2 18.0 -6.2 13 11.8 S 13 15 7 8 1020.5 - 0.0
22/04:30pm 23.1 17.9 -6.5 13 11.8 SSW 13 17 7 9 1020.5 - 0.0
22/04:00pm 22.9 17.8 -5.4 14 11.5 SW 13 17 7 9 1020.6 - 0.0
22/03:30pm 23.1 18.0 -4.9 15 11.5 SW 13 17 7 9 1020.9 - 0.0
22/03:00pm 22.6 17.6 -0.9 21 10.4 SW 15 19 8 10 1021.1 1021.1 0.0
22/02:30pm 21.5 16.8 3.1 29 8.7 SW 17 19 9 10 1021.4 - 0.0
22/02:00pm 22.4 17.4 3.4 28 9.1 W 19 26 10 14 1021.6 - 0.0
22/01:30pm 23.1 19.5 3.0 27 9.6 W 11 19 6 10 1021.9 - 0.0
22/01:00pm 26.3 18.7 -6.0 11 13.4 N 26 35 14 19 1022.2 - 0.0
22/12:30pm 24.9 17.6 -5.8 12 12.7 N 24 30 13 16 1022.7 - 0.0
22/12:00pm 24.9 17.6 -6.4 12 12.7 N 24 33 13 18 1023.3 1023.3 0.0
22/11:30am 24.1 17.1 -7.1 12 12.5 N 22 33 12 18 1023.8 - 0.0
22/11:00am 23.4 15.9 -8.8 11 12.4 N 24 33 13 18 1024.2 - 0.0
22/10:30am 23.5 15.1 -6.0 13 12.0 NNE 30 37 16 20 1024.6 - 0.0
22/10:00am 22.3 14.4 -5.0 15 11.1 N 28 35 15 19 1025.0 - 0.0
22/09:30am 21.5 13.8 -3.1 19 10.3 NNE 28 37 15 20 1025.4 - 0.0
22/09:00am 20.5 12.8 -3.2 20 9.8 NNE 28 37 15 20 1025.6 1025.6 0.0
22/08:30am 19.5 13.6 -1.9 23 9.1 NE 19 24 10 13 1025.7 - 0.0
22/08:00am 17.5 11.6 -0.7 29 7.7 NE 20 26 11 14 1025.8 - 0.0
22/07:30am 15.9 10.6 -0.3 33 6.9 NE 17 24 9 13 1025.9 - 0.0
22/07:00am 13.8 8.6 0.4 40 5.6 NNE 17 19 9 10 1025.8 - 0.0
22/06:30am 12.4 7.1 -0.8 40 5.3 NE 17 20 9 11 1025.5 - 0.0
22/06:00am 12.8 6.9 -2.0 35 5.8 NE 19 20 10 11 1025.5 1025.5 0.0
22/05:30am 10.6 5.3 -0.5 46 4.4 NNE 17 22 9 12 1025.3 - 0.0
22/05:00am 12.2 6.5 -1.1 39 5.3 NNE 19 20 10 11 1025.0 - 0.0
22/04:30am 12.2 6.6 -0.1 42 5.0 NE 19 20 10 11 1024.8 - 0.0
22/04:00am 11.7 6.6 0.8 47 4.5 NE 17 20 9 11 1024.8 - 0.0
22/03:30am 11.1 6.0 0.9 49 4.2 NNE 17 19 9 10 1025.0 - 0.0
22/03:00am 8.2 4.7 1.3 62 2.8 NE 9 11 5 6 1025.1 1025.1 0.0
22/02:30am 8.5 4.7 1.9 63 2.7 ENE 11 11 6 6 1025.4 - 0.0
22/02:00am 8.7 5.1 2.8 66 2.5 E 11 13 6 7 1025.8 - 0.0
22/01:30am 8.9 5.6 2.4 64 2.7 NE 9 11 5 6 1026.3 - 0.0
22/01:00am 9.9 6.6 2.6 60 3.1 ENE 9 11 5 6 1026.5 - 0.0
22/12:30am 10.7 7.9 2.2 55 3.6 NNE 6 9 3 5 1026.5 - 0.0
22/12:00am 11.3 8.7 3.0 56 3.6 E 6 7 3 4 1026.3 1026.3 0.0
 
Date/Time
CST
Temp
°C
App
Temp
°C
Dew
Point
Rel
Hum
%
Delta-T
°C
Wind Press
QNH
hPa
Press
MSL
hPa
Rain
since 9 am
mm
Dir
 
Spd
km/h
Gust
km/h
Spd
kts
Gust
kts
21/11:30pm 11.4 8.2 3.1 56 3.6 ENE 9 11 5 6 1026.2 - 0.0
21/11:00pm 11.6 7.5 2.5 53 3.9 E 13 13 7 7 1026.3 - 0.0
21/10:30pm 12.2 8.1 2.5 51 4.2 E 13 13 7 7 1026.5 - 0.0
21/10:00pm 11.7 7.8 3.5 57 3.6 E 13 15 7 8 1026.7 - 0.0
21/09:30pm 12.4 9.7 3.9 56 3.8 SE 7 9 4 5 1027.1 - 0.0
21/09:00pm 12.6 10.1 4.9 59 3.5 SE 7 7 4 4 1027.3 1027.3 0.0
21/08:30pm 12.6 10.0 6.2 65 3.0 ESE 9 11 5 6 1027.2 - 0.0
21/08:00pm 14.8 12.5 5.7 54 4.3 S 7 9 4 5 1027.2 - 0.0
21/07:30pm 15.1 13.1 6.4 56 4.2 S 6 7 3 4 1027.0 - 0.0
21/07:00pm 15.6 13.0 6.0 53 4.6 S 9 11 5 6 1026.9 - 0.0
21/06:30pm 15.8 12.7 5.5 50 4.9 S 11 13 6 7 1026.8 - 0.0
21/06:00pm 16.9 13.5 4.0 42 6.0 SSW 11 13 6 7 1026.5 1026.5 0.0
21/05:30pm 17.7 13.0 3.1 37 6.7 SSW 17 20 9 11 1026.6 - 0.0
21/05:00pm 17.5 14.2 8.0 53 4.8 SSW 15 17 8 9 1026.5 - 0.0
21/04:30pm 17.2 13.6 9.7 61 3.9 SW 19 24 10 13 1026.5 - 0.0
21/04:00pm 17.4 13.7 10.2 62 3.8 SW 20 28 11 15 1026.4 - 0.0
21/03:30pm 18.2 14.1 8.7 54 4.9 SW 20 28 11 15 1026.2 - 0.0
21/03:00pm 18.8 15.3 8.7 52 5.2 WSW 17 20 9 11 1026.5 1026.5 0.0
21/02:30pm 19.5 16.7 8.7 49 5.6 WSW 13 15 7 8 1026.7 - 0.0
21/02:00pm 18.6 14.7 8.5 52 5.2 WSW 19 22 10 12 1027.3 - 0.0
21/01:30pm 18.9 15.4 7.4 47 5.8 WSW 15 19 8 10 1027.7 - 0.0
21/01:00pm 18.3 14.6 6.3 45 5.9 WSW 15 19 8 10 1028.2 - 0.0
21/12:30pm 17.9 13.4 6.8 48 5.5 SW 20 26 11 14 1029.0 - 0.0
21/12:00pm 18.3 13.7 6.3 45 5.9 WSW 20 26 11 14 1029.4 1029.4 0.0
21/11:30am 18.3 14.7 5.2 42 6.3 WSW 13 17 7 9 1029.5 - 0.0
21/11:00am 18.6 14.8 5.9 43 6.2 WSW 15 19 8 10 1029.8 - 0.0
21/10:30am 18.4 14.4 5.0 41 6.5 WSW 15 19 8 10 1030.1 - 0.0
21/10:00am 17.8 15.6 6.1 46 5.7 NNW 7 13 4 7 1030.3 - 0.0
21/09:30am 19.3 15.9 4.1 36 7.2 NNE 11 19 6 10 1030.4 - 0.0
21/09:00am 17.3 14.8 3.6 40 6.3 W 6 7 3 4 1030.4 1030.4 0.0
21/08:30am 17.2 15.3 4.7 43 5.9 W 4 7 2 4 1030.2 - 0.0
21/08:00am 14.9 13.9 5.6 53 4.4 CALM 0 0 0 0 1029.9 - 0.0
21/07:30am 11.8 10.3 5.2 64 3.0 ENE 2 7 1 4 1029.8 - 0.0
21/07:00am 9.2 6.7 4.7 73 2.0 ESE 7 9 4 5 1029.6 - 0.0
21/06:30am 6.8 5.3 2.9 76 1.6 CALM 0 0 0 0 1029.4 - 0.0
21/06:00am 7.6 6.0 2.5 70 2.1 CALM 0 0 0 0 1028.9 1028.9 0.0
21/05:30am 7.7 5.1 3.2 73 1.9 SSE 6 7 3 4 1028.5 - 0.0
21/05:00am 9.0 5.9 3.4 68 2.4 SSW 9 11 5 6 1028.1 - 0.0
21/04:30am 8.9 6.6 2.7 65 2.6 SE 4 9 2 5 1027.7 - 0.0
21/04:00am 9.8 8.2 2.4 60 3.1 CALM 0 0 0 0 1027.4 - 0.0
21/03:30am 11.2 9.1 1.7 52 4.0 ENE 2 7 1 4 1027.1 - 0.0
21/03:00am 11.2 9.6 2.6 55 3.7 CALM 0 0 0 0 1027.1 1027.1 0.0
21/02:30am 11.5 8.8 2.4 53 3.9 E 6 9 3 5 1027.2 - 0.0
21/02:00am 13.1 9.3 1.9 46 4.8 ENE 11 17 6 9 1027.2 - 0.0
21/01:30am 13.1 8.6 2.2 47 4.7 ENE 15 24 8 13 1027.5 - 0.0
21/01:00am 13.9 9.0 1.9 44 5.2 E 17 22 9 12 1027.5 - 0.0
21/12:30am 14.5 9.6 1.8 42 5.5 ENE 17 26 9 14 1027.5 - 0.0
21/12:00am 14.6 8.7 2.0 42 5.5 ENE 22 32 12 17 1027.5 1027.5 0.0
 
Date/Time
CST
Temp
°C
App
Temp
°C
Dew
Point
Rel
Hum
%
Delta-T
°C
Wind Press
QNH
hPa
Press
MSL
hPa
Rain
since 9 am
mm
Dir
 
Spd
km/h
Gust
km/h
Spd
kts
Gust
kts
20/11:30pm 14.3 8.9 2.2 44 5.3 E 20 26 11 14 1027.3 - 0.0
20/11:00pm 13.4 9.4 3.0 49 4.6 ENE 13 22 7 12 1027.5 - 0.0
20/10:30pm 14.0 10.1 3.2 48 4.8 E 13 17 7 9 1027.6 - 0.0
20/10:00pm 15.1 10.0 3.1 44 5.4 E 19 28 10 15 1027.6 - 0.0
20/09:30pm 15.5 10.2 3.0 43 5.7 E 20 30 11 16 1027.6 - 0.0
20/09:00pm 16.1 10.7 2.7 40 6.0 E 20 30 11 16 1027.4 1027.4 0.0
20/08:30pm 16.3 10.8 2.1 38 6.3 ESE 20 32 11 17 1027.2 - 0.0
20/08:00pm 16.6 10.8 0.2 33 7.1 E 20 28 11 15 1027.0 - 0.0
20/07:30pm 17.3 11.4 -1.1 28 7.8 E 20 26 11 14 1026.7 - 0.0
20/07:00pm 18.1 11.7 -1.5 26 8.3 E 22 30 12 16 1026.4 - 0.0
20/06:30pm 17.9 11.8 0.1 30 7.7 ESE 22 32 12 17 1026.0 - 0.0
20/06:00pm 18.7 13.2 1.8 32 7.6 ESE 20 28 11 15 1025.9 1025.9 0.0
20/05:30pm 18.3 14.1 4.0 38 6.8 SSW 15 19 8 10 1025.6 - 0.0
20/05:00pm 19.3 14.7 3.5 35 7.4 SSW 17 22 9 12 1025.1 - 0.0
20/04:30pm 19.8 15.1 3.1 33 7.8 SSW 17 20 9 11 1024.9 - 0.0
20/04:00pm 20.3 15.1 2.3 30 8.3 SSW 19 24 10 13 1024.7 - 0.0
20/03:30pm 20.1 14.1 1.2 28 8.6 SW 22 28 12 15 1024.6 - 0.0
20/03:00pm 20.2 14.8 2.5 31 8.2 SW 20 26 11 14 1024.6 1024.6 0.0
20/02:30pm 21.1 16.0 0.6 25 9.2 WSW 17 19 9 10 1024.5 - 0.0
20/02:00pm 19.8 15.2 3.7 34 7.6 WSW 17 20 9 11 1024.6 - 0.0
20/01:30pm 19.9 15.9 4.8 37 7.3 SW 15 19 8 10 1024.7 - 0.0
20/01:00pm 18.9 14.5 5.0 40 6.7 WSW 17 20 9 11 1024.9 - 0.0
20/12:30pm 18.0 13.5 5.9 45 5.9 WSW 19 22 10 12 1025.2 - 0.0
20/12:00pm 17.9 13.8 6.3 46 5.7 WSW 17 22 9 12 1025.6 1025.6 0.0
20/11:30am 18.0 14.4 6.9 48 5.5 WSW 15 19 8 10 1025.9 - 0.0
20/11:00am 17.6 14.7 6.6 48 5.4 NW 11 17 6 9 1026.3 - 0.0
20/10:30am 20.4 15.5 -0.4 25 9.1 N 15 20 8 11 1026.5 - 0.0
20/10:00am 19.8 14.9 -0.5 25 8.9 NE 15 19 8 10 1026.6 - 0.0
20/09:30am 18.8 14.0 -0.1 28 8.2 NE 15 22 8 12 1026.6 - 0.0
20/09:00am 18.0 12.2 -0.1 29 7.8 NE 20 26 11 14 1026.3 1026.3 0.2
20/08:30am 17.3 11.5 -0.3 30 7.5 NE 20 26 11 14 1026.0 - 0.2
20/08:00am 16.3 10.7 0.1 33 6.9 ENE 19 28 10 15 1025.8 - 0.2
20/07:30am 14.8 10.8 0.3 37 6.1 NE 11 15 6 8 1025.4 - 0.2
20/07:00am 11.9 8.1 1.8 50 4.3 NE 11 13 6 7 1024.9 - 0.2
20/06:30am 11.1 6.4 0.9 49 4.2 ENE 15 19 8 10 1024.6 - 0.2
20/06:00am 9.6 5.3 0.7 54 3.6 ENE 13 17 7 9 1024.3 1024.3 0.2
20/05:30am 9.9 5.9 0.2 51 3.9 NE 11 17 6 9 1024.1 - 0.2
20/05:00am 9.8 5.2 1.3 55 3.5 NE 15 19 8 10 1023.5 - 0.2
20/04:30am 11.2 6.4 0.4 47 4.4 ENE 15 19 8 10 1023.2 - 0.2
20/04:00am 11.6 6.9 0.7 47 4.5 ENE 15 20 8 11 1023.0 - 0.2
20/03:30am 11.7 6.9 0.2 45 4.7 ENE 15 20 8 11 1023.0 - 0.2
20/03:00am 12.3 7.1 0.1 43 5.0 ENE 17 22 9 12 1023.0 1023.0 0.2
20/02:30am 12.7 6.9 0.1 42 5.2 ENE 20 28 11 15 1022.8 - 0.2
20/02:00am 12.8 7.0 0.2 42 5.2 ENE 20 28 11 15 1022.9 - 0.2
20/01:30am 11.2 6.5 1.1 50 4.2 E 15 19 8 10 1023.2 - 0.2
20/01:00am 12.4 7.4 1.2 46 4.7 E 17 22 9 12 1023.2 - 0.2
20/12:30am 12.8 7.8 1.2 45 4.9 E 17 24 9 13 1023.1 - 0.2
20/12:00am 13.0 7.1 1.5 45 4.9 E 22 32 12 17 1023.1 1023.1 0.2
 
Date/Time
CST
Temp
°C
App
Temp
°C
Dew
Point
Rel
Hum
%
Delta-T
°C
Wind Press
QNH
hPa
Press
MSL
hPa
Rain
since 9 am
mm
Dir
 
Spd
km/h
Gust
km/h
Spd
kts
Gust
kts
19/11:30pm 12.1 7.2 2.0 50 4.3 E 17 26 9 14 1023.2 - 0.2
19/11:00pm 11.7 7.3 2.7 54 3.9 E 15 20 8 11 1023.4 - 0.2
19/10:30pm 11.7 7.4 3.0 55 3.8 E 15 20 8 11 1023.6 - 0.2
19/10:00pm 11.8 8.3 3.7 57 3.6 E 11 15 6 8 1023.7 - 0.2

Other Formats:

Comma delimited format used in spreadsheet applications
http://www.bom.gov.au/fwo/IDS60801/IDS60801.94672.axf

JavaScript Object Notation format (JSON) in row-major order
http://www.bom.gov.au/fwo/IDS60801/IDS60801.94672.json